Time;durP1;ratioP1;P1;durP2;ratioP2;P2;SDS_P1;SDS_P2;PMS_P1;PMS_P2;Temp;Humidity;BMP_temperature;BMP_pressure;BME280_temperature;BME280_humidity;BME280_pressure;Samples;Min_cycle;Max_cycle;Signal;HPM_P1;HPM_P2
2022/02/14 00:00:31;;;;;;;9.50;3.42;;;;;;;;;;4972362;28;20129;-65
2022/02/14 00:02:58;;;;;;;6.28;3.67;;;;;;;;;;4972305;28;20055;-64
2022/02/14 00:05:25;;;;;;;6.10;3.17;;;;;;;;;;4972583;28;20395;-64
2022/02/14 00:07:51;;;;;;;5.75;4.05;;;;;;;;;;4972429;28;20541;-64
2022/02/14 00:10:18;;;;;;;7.55;3.47;;;;;;;;;;4972213;28;20564;-64
2022/02/14 00:12:45;;;;;;;3.90;2.83;;;;;;;;;;4972149;28;20109;-64
2022/02/14 00:15:12;;;;;;;6.10;3.05;;;;;;;;;;4971761;28;20498;-64
2022/02/14 00:17:40;;;;;;;6.85;3.83;;;;;;;;;;4972236;28;20043;-64
2022/02/14 00:20:07;;;;;;;5.32;3.47;;;;;;;;;;4972234;28;20502;-65
2022/02/14 00:22:34;;;;;;;5.88;3.22;;;;;;;;;;4971840;28;20047;-64
2022/02/14 00:25:01;;;;;;;6.97;3.72;;;;;;;;;;4975354;28;20101;-64
2022/02/14 00:27:27;;;;;;;6.53;3.20;;;;;;;;;;4975712;28;20502;-64
2022/02/14 00:29:54;;;;;;;4.25;3.50;;;;;;;;;;4975632;28;20085;-65
2022/02/14 00:32:20;;;;;;;4.32;3.15;;;;;;;;;;4975235;28;20059;-63
2022/02/14 00:34:48;;;;;;;4.82;2.95;;;;;;;;;;4975628;28;20129;-64
2022/02/14 00:37:16;;;;;;;7.43;3.65;;;;;;;;;;4975436;28;20051;-62
2022/02/14 00:39:43;;;;;;;5.93;3.53;;;;;;;;;;4975511;28;20050;-64
2022/02/14 00:42:09;;;;;;;5.38;3.10;;;;;;;;;;4975158;28;20537;-64
2022/02/14 00:44:36;;;;;;;6.38;3.33;;;;;;;;;;4975411;28;20046;-65
2022/02/14 00:47:03;;;;;;;6.00;3.03;;;;;;;;;;4975716;28;20054;-64
2022/02/14 00:49:29;;;;;;;6.55;3.38;;;;;;;;;;4975214;28;20063;-64
2022/02/14 00:51:56;;;;;;;9.23;3.53;;;;;;;;;;4975087;28;20055;-64
2022/02/14 00:54:23;;;;;;;4.97;3.03;;;;;;;;;;4974972;28;20051;-64
2022/02/14 00:56:49;;;;;;;5.63;3.03;;;;;;;;;;4974985;28;20051;-64
2022/02/14 00:59:16;;;;;;;5.88;3.95;;;;;;;;;;4975203;28;20430;-64
2022/02/14 01:01:43;;;;;;;5.18;3.20;;;;;;;;;;4975072;28;20051;-64
2022/02/14 01:04:09;;;;;;;3.95;2.80;;;;;;;;;;4974630;28;20113;-64
2022/02/14 01:06:36;;;;;;;4.63;3.47;;;;;;;;;;4975066;28;20090;-63
2022/02/14 01:09:03;;;;;;;6.70;2.70;;;;;;;;;;4975254;28;20054;-64
2022/02/14 01:11:29;;;;;;;7.68;3.20;;;;;;;;;;4974783;28;20059;-65
2022/02/14 01:13:56;;;;;;;7.30;3.00;;;;;;;;;;4974142;28;20499;-63
2022/02/14 01:16:22;;;;;;;4.43;3.33;;;;;;;;;;4974525;28;20491;-64
2022/02/14 01:18:49;;;;;;;6.10;3.15;;;;;;;;;;4974809;28;20159;-65
2022/02/14 01:21:16;;;;;;;3.88;2.58;;;;;;;;;;4973461;28;20101;-65
2022/02/14 01:23:43;;;;;;;4.10;3.03;;;;;;;;;;4974377;28;20054;-65
2022/02/14 01:26:09;;;;;;;5.38;2.83;;;;;;;;;;4974648;28;20101;-65
2022/02/14 01:28:36;;;;;;;5.28;3.40;;;;;;;;;;4974456;28;20071;-64
2022/02/14 01:31:02;;;;;;;5.15;3.00;;;;;;;;;;4974549;28;20047;-62
2022/02/14 01:33:29;;;;;;;5.47;3.00;;;;;;;;;;4974123;28;20059;-64
2022/02/14 01:35:55;;;;;;;4.03;2.35;;;;;;;;;;4973503;28;20098;-65
2022/02/14 01:38:22;;;;;;;3.72;2.70;;;;;;;;;;4974305;28;20387;-63
2022/02/14 01:40:48;;;;;;;4.05;2.70;;;;;;;;;;4974413;28;20105;-64
2022/02/14 01:43:15;;;;;;;4.25;2.75;;;;;;;;;;4973913;28;20105;-64
2022/02/14 01:45:42;;;;;;;4.07;2.70;;;;;;;;;;4974336;28;20047;-64
2022/02/14 01:48:10;;;;;;;5.00;2.60;;;;;;;;;;4974060;28;20105;-63
2022/02/14 01:50:36;;;;;;;5.97;2.45;;;;;;;;;;4974208;28;20051;-63
2022/02/14 01:53:04;;;;;;;4.22;2.45;;;;;;;;;;4973789;28;20109;-64
2022/02/14 01:55:31;;;;;;;5.93;3.35;;;;;;;;;;4974053;28;20054;-63
2022/02/14 01:58:02;;;;;;;4.43;2.92;;;;;;;;;;4972821;28;20121;-64
2022/02/14 02:00:29;;;;;;;3.55;2.63;;;;;;;;;;4973993;28;20572;-64
2022/02/14 02:02:56;;;;;;;4.60;2.38;;;;;;;;;;4974006;28;20133;-65
2022/02/14 02:05:23;;;;;;;3.53;2.78;;;;;;;;;;4973818;28;20097;-64
2022/02/14 02:07:51;;;;;;;3.35;2.55;;;;;;;;;;4973854;28;20489;-64
2022/02/14 02:10:19;;;;;;;3.80;2.33;;;;;;;;;;4972756;28;20486;-64
2022/02/14 02:12:56;;;;;;;7.90;2.70;;;;;;;;;;4973654;28;20109;-64
2022/02/14 02:15:23;;;;;;;5.95;2.40;;;;;;;;;;4973193;28;20051;-65
2022/02/14 02:17:50;;;;;;;4.68;2.97;;;;;;;;;;4973624;28;20093;-64
2022/02/14 02:20:18;;;;;;;3.08;2.40;;;;;;;;;;4973447;28;20503;-65
2022/02/14 02:22:46;;;;;;;4.57;2.63;;;;;;;;;;4973282;28;20051;-64
2022/02/14 02:25:13;;;;;;;6.40;2.42;;;;;;;;;;4973988;28;20481;-65
2022/02/14 02:27:42;;;;;;;4.38;2.50;;;;;;;;;;4974060;28;20102;-63
2022/02/14 02:30:10;;;;;;;4.65;2.63;;;;;;;;;;4973491;28;20051;-62
2022/02/14 02:32:37;;;;;;;5.22;2.67;;;;;;;;;;4973173;28;20050;-62
2022/02/14 02:35:05;;;;;;;4.07;2.78;;;;;;;;;;4973810;28;20486;-62
2022/02/14 02:37:32;;;;;;;3.03;2.15;;;;;;;;;;4973330;28;20101;-62
2022/02/14 02:39:59;;;;;;;3.25;2.13;;;;;;;;;;4973309;28;20557;-62
2022/02/14 02:42:25;;;;;;;3.72;1.95;;;;;;;;;;4973008;28;20050;-62
2022/02/14 02:44:52;;;;;;;3.17;1.80;;;;;;;;;;4973167;28;20109;-62
2022/02/14 02:47:21;;;;;;;3.55;2.30;;;;;;;;;;4987817;28;20101;-63
2022/02/14 02:49:48;;;;;;;7.68;2.50;;;;;;;;;;4973234;28;20110;-62
2022/02/14 02:52:15;;;;;;;5.05;2.35;;;;;;;;;;4971835;28;20055;-62
2022/02/14 02:54:42;;;;;;;3.50;1.95;;;;;;;;;;4973239;28;20055;-62
2022/02/14 02:57:09;;;;;;;3.85;2.38;;;;;;;;;;4972847;28;20506;-62
2022/02/14 02:59:41;;;;;;;2.40;2.13;;;;;;;;;;4973153;28;20418;-62
2022/02/14 03:02:07;;;;;;;2.50;1.90;;;;;;;;;;4972831;28;20109;-62
2022/02/14 03:04:34;;;;;;;4.55;2.22;;;;;;;;;;4973219;28;20066;-62
2022/02/14 03:07:01;;;;;;;5.00;2.10;;;;;;;;;;4972934;28;20050;-62
2022/02/14 03:09:28;;;;;;;5.63;2.53;;;;;;;;;;4972887;28;20046;-62
2022/02/14 03:11:56;;;;;;;4.78;2.38;;;;;;;;;;4972946;28;20079;-62
2022/02/14 03:14:23;;;;;;;2.95;2.00;;;;;;;;;;4972248;28;20109;-62
2022/02/14 03:16:49;;;;;;;2.63;1.92;;;;;;;;;;4972734;28;20059;-62
2022/02/14 03:19:16;;;;;;;4.10;2.80;;;;;;;;;;4972721;28;20050;-62
2022/02/14 03:21:42;;;;;;;3.00;2.15;;;;;;;;;;4972696;28;20078;-62
2022/02/14 03:24:09;;;;;;;2.65;2.03;;;;;;;;;;4972515;28;20415;-62
2022/02/14 03:26:36;;;;;;;4.38;2.38;;;;;;;;;;4972661;28;20058;-62
2022/02/14 03:29:02;;;;;;;3.00;2.00;;;;;;;;;;4972691;28;20098;-61
2022/02/14 03:31:29;;;;;;;3.78;2.22;;;;;;;;;;4972627;28;20051;-62
2022/02/14 03:33:56;;;;;;;3.10;1.77;;;;;;;;;;4972511;28;20050;-62
2022/02/14 03:36:23;;;;;;;3.17;2.00;;;;;;;;;;4972536;28;20422;-62
2022/02/14 03:38:50;;;;;;;4.15;1.63;;;;;;;;;;4972518;28;20051;-62
2022/02/14 03:41:17;;;;;;;4.22;2.10;;;;;;;;;;4972553;28;20055;-62
2022/02/14 03:43:44;;;;;;;4.15;2.13;;;;;;;;;;4972359;28;20059;-62
2022/02/14 03:46:11;;;;;;;2.40;1.83;;;;;;;;;;4972630;28;20106;-62
2022/02/14 03:48:37;;;;;;;2.92;1.92;;;;;;;;;;4972637;28;20047;-62
2022/02/14 03:51:04;;;;;;;3.25;1.77;;;;;;;;;;4972564;28;20501;-62
2022/02/14 03:53:31;;;;;;;2.65;1.80;;;;;;;;;;4972363;28;20050;-62
2022/02/14 03:55:58;;;;;;;3.38;2.00;;;;;;;;;;4972686;28;20521;-62
2022/02/14 03:58:25;;;;;;;3.03;1.73;;;;;;;;;;4973452;28;20047;-63
2022/02/14 04:00:52;;;;;;;2.88;2.05;;;;;;;;;;4976374;28;20426;-62
2022/02/14 04:03:19;;;;;;;3.10;1.98;;;;;;;;;;4975947;28;20084;-62
2022/02/14 04:05:46;;;;;;;2.70;1.80;;;;;;;;;;4976338;28;20086;-62
2022/02/14 04:08:13;;;;;;;3.08;1.95;;;;;;;;;;4976153;28;20422;-63
2022/02/14 04:10:40;;;;;;;2.33;1.63;;;;;;;;;;4976212;28;20051;-61
2022/02/14 04:13:06;;;;;;;4.07;1.73;;;;;;;;;;4975762;28;20101;-61
2022/02/14 04:15:33;;;;;;;3.72;2.00;;;;;;;;;;4975380;28;20077;-62
2022/02/14 04:17:59;;;;;;;2.67;1.80;;;;;;;;;;4975919;28;20402;-62
2022/02/14 04:20:26;;;;;;;3.45;1.77;;;;;;;;;;4975767;28;20051;-62
2022/02/14 04:22:53;;;;;;;4.93;2.35;;;;;;;;;;4975554;28;20427;-62
2022/02/14 04:25:19;;;;;;;3.42;1.95;;;;;;;;;;4975694;28;20101;-62
2022/02/14 04:27:46;;;;;;;2.95;1.95;;;;;;;;;;4975853;28;20101;-62
2022/02/14 04:30:13;;;;;;;3.08;2.10;;;;;;;;;;4975511;28;20106;-62
2022/02/14 04:32:40;;;;;;;2.90;2.10;;;;;;;;;;4975486;28;20121;-62
2022/02/14 04:35:08;;;;;;;3.13;1.90;;;;;;;;;;4975712;28;20054;-62
2022/02/14 04:37:35;;;;;;;6.53;1.70;;;;;;;;;;4975398;28;20190;-61
2022/02/14 04:40:03;;;;;;;3.72;2.15;;;;;;;;;;4975447;28;20458;-61
2022/02/14 04:42:29;;;;;;;4.22;1.75;;;;;;;;;;4975360;28;20153;-62
2022/02/14 04:44:56;;;;;;;3.45;1.85;;;;;;;;;;4978139;28;20050;-62
2022/02/14 04:47:23;;;;;;;3.40;2.17;;;;;;;;;;4975216;28;20054;-62
2022/02/14 04:49:49;;;;;;;3.80;2.05;;;;;;;;;;4975330;28;20051;-62
2022/02/14 04:52:16;;;;;;;2.88;1.85;;;;;;;;;;4976880;28;20585;-62
2022/02/14 04:54:44;;;;;;;4.55;1.98;;;;;;;;;;4975950;28;20105;-62
2022/02/14 04:57:10;;;;;;;3.30;1.80;;;;;;;;;;4976945;28;20569;-62
2022/02/14 04:59:37;;;;;;;3.10;1.88;;;;;;;;;;4976410;28;20046;-62
2022/02/14 05:02:03;;;;;;;4.32;2.00;;;;;;;;;;4976994;28;20466;-62
2022/02/14 05:04:30;;;;;;;3.08;2.10;;;;;;;;;;4991581;28;20058;-62
2022/02/14 05:06:57;;;;;;;3.80;2.17;;;;;;;;;;4977169;28;20271;-62
2022/02/14 05:09:23;;;;;;;3.40;1.80;;;;;;;;;;4977019;28;20447;-63
2022/02/14 05:11:50;;;;;;;3.53;1.80;;;;;;;;;;4977189;28;20054;-62
2022/02/14 05:14:17;;;;;;;4.65;2.22;;;;;;;;;;4976343;28;20122;-62
2022/02/14 05:16:43;;;;;;;2.92;2.20;;;;;;;;;;4977748;28;20050;-62
2022/02/14 05:19:10;;;;;;;3.40;1.70;;;;;;;;;;4977039;28;20050;-62
2022/02/14 05:21:37;;;;;;;4.53;2.33;;;;;;;;;;4977876;28;20055;-62
2022/02/14 05:24:06;;;;;;;2.95;1.50;;;;;;;;;;4976730;28;20077;-62
2022/02/14 05:26:32;;;;;;;6.03;2.15;;;;;;;;;;4976261;28;20046;-63
2022/02/14 05:28:59;;;;;;;4.32;2.25;;;;;;;;;;4974579;28;20047;-62
2022/02/14 05:31:29;;;;;;;2.63;2.00;;;;;;;;;;4974501;28;20175;-61
2022/02/14 05:33:56;;;;;;;4.32;2.05;;;;;;;;;;4974378;28;20051;-62
2022/02/14 05:36:23;;;;;;;3.17;1.50;;;;;;;;;;4989271;28;20561;-61
2022/02/14 05:38:49;;;;;;;3.35;1.88;;;;;;;;;;4974400;28;20047;-61
2022/02/14 05:41:16;;;;;;;5.07;1.90;;;;;;;;;;4974463;28;20495;-61
2022/02/14 05:43:43;;;;;;;3.03;1.23;;;;;;;;;;4974342;28;20525;-60
2022/02/14 05:46:13;;;;;;;6.25;1.90;;;;;;;;;;4974359;28;20141;-62
2022/02/14 05:48:45;;;;;;;4.50;1.98;;;;;;;;;;4974517;28;20051;-60
2022/02/14 05:51:12;;;;;;;3.13;1.70;;;;;;;;;;4974293;28;20051;-61
2022/02/14 05:53:39;;;;;;;6.03;2.10;;;;;;;;;;4974216;28;20059;-62
2022/02/14 05:56:07;;;;;;;3.78;1.65;;;;;;;;;;4974435;28;20051;-62
2022/02/14 05:58:39;;;;;;;3.55;1.85;;;;;;;;;;4974045;28;20051;-61
2022/02/14 06:01:06;;;;;;;4.10;2.45;;;;;;;;;;4974011;28;20055;-60
2022/02/14 06:03:33;;;;;;;3.47;2.10;;;;;;;;;;4973753;28;20489;-60
2022/02/14 06:06:00;;;;;;;5.63;2.13;;;;;;;;;;4974247;28;20050;-61
2022/02/14 06:08:27;;;;;;;4.05;1.50;;;;;;;;;;4973862;28;20070;-61
2022/02/14 06:10:53;;;;;;;3.38;1.83;;;;;;;;;;4973013;28;20047;-61
2022/02/14 06:13:21;;;;;;;3.08;2.00;;;;;;;;;;4973940;28;20047;-61
2022/02/14 06:15:47;;;;;;;6.65;1.85;;;;;;;;;;4973640;28;20047;-61
2022/02/14 06:18:14;;;;;;;5.90;2.65;;;;;;;;;;4974099;28;20050;-61
2022/02/14 06:20:41;;;;;;;5.45;2.10;;;;;;;;;;4973635;28;20494;-62
2022/02/14 06:23:08;;;;;;;3.70;2.05;;;;;;;;;;4973655;28;20055;-61
2022/02/14 06:25:35;;;;;;;4.25;2.17;;;;;;;;;;4973984;28;20065;-62
2022/02/14 06:28:02;;;;;;;2.90;1.95;;;;;;;;;;4973741;28;20422;-62
2022/02/14 06:30:30;;;;;;;4.90;1.80;;;;;;;;;;4973745;28;20133;-60
2022/02/14 06:32:57;;;;;;;3.28;2.03;;;;;;;;;;4973353;28;20057;-61
2022/02/14 06:35:24;;;;;;;4.55;2.00;;;;;;;;;;4973516;28;20114;-61
2022/02/14 06:37:50;;;;;;;4.03;2.20;;;;;;;;;;4973431;28;20055;-61
2022/02/14 06:40:17;;;;;;;5.53;2.78;;;;;;;;;;4973466;28;20150;-61
2022/02/14 06:42:47;;;;;;;4.20;2.00;;;;;;;;;;4973604;28;20054;-60
2022/02/14 06:45:18;;;;;;;3.92;2.00;;;;;;;;;;4973465;28;20503;-61
2022/02/14 06:47:50;;;;;;;5.80;1.80;;;;;;;;;;4973381;28;20058;-60
2022/02/14 06:50:17;;;;;;;4.00;1.90;;;;;;;;;;4973272;28;20058;-61
2022/02/14 06:52:44;;;;;;;6.00;2.13;;;;;;;;;;4973248;28;20117;-60
2022/02/14 06:55:12;;;;;;;5.63;1.80;;;;;;;;;;4972996;28;20498;-61
2022/02/14 06:57:38;;;;;;;5.53;1.90;;;;;;;;;;4973132;28;20109;-60
2022/02/14 07:00:08;;;;;;;4.15;2.17;;;;;;;;;;4973228;28;20384;-61
2022/02/14 07:02:35;;;;;;;4.13;2.33;;;;;;;;;;4972771;28;20055;-59
2022/02/14 07:05:03;;;;;;;3.45;2.05;;;;;;;;;;4973240;28;20057;-59
2022/02/14 07:07:31;;;;;;;3.00;1.92;;;;;;;;;;4972929;28;20458;-59
2022/02/14 07:09:58;;;;;;;3.20;2.22;;;;;;;;;;4973017;28;20051;-61
2022/02/14 07:12:24;;;;;;;2.95;1.65;;;;;;;;;;4972732;28;20055;-60
2022/02/14 07:14:52;;;;;;;3.53;2.10;;;;;;;;;;4972791;28;20051;-61
2022/02/14 07:17:18;;;;;;;8.50;2.03;;;;;;;;;;4972859;28;20051;-61
2022/02/14 07:19:45;;;;;;;4.03;1.92;;;;;;;;;;4972972;28;20105;-61
2022/02/14 07:22:12;;;;;;;3.50;2.08;;;;;;;;;;4972763;28;20403;-62
2022/02/14 07:24:38;;;;;;;2.63;1.50;;;;;;;;;;4972985;28;20105;-63
2022/02/14 07:27:05;;;;;;;3.28;1.73;;;;;;;;;;4972842;28;20102;-62
2022/02/14 07:29:32;;;;;;;3.53;1.65;;;;;;;;;;4972770;28;20510;-63
2022/02/14 07:32:00;;;;;;;2.95;1.92;;;;;;;;;;4973071;28;20050;-63
2022/02/14 07:34:27;;;;;;;3.78;1.75;;;;;;;;;;4975631;28;20576;-61
2022/02/14 07:36:53;;;;;;;6.45;2.13;;;;;;;;;;4976846;28;20054;-62
2022/02/14 07:39:20;;;;;;;4.30;2.15;;;;;;;;;;4976562;28;20054;-62
2022/02/14 07:41:48;;;;;;;5.57;1.83;;;;;;;;;;4976622;28;20494;-62
2022/02/14 07:44:15;;;;;;;6.18;2.00;;;;;;;;;;4976390;28;20047;-62
2022/02/14 07:46:42;;;;;;;6.47;2.30;;;;;;;;;;4976555;28;20054;-62
2022/02/14 07:49:08;;;;;;;5.75;2.10;;;;;;;;;;4976618;28;20058;-62
2022/02/14 07:51:35;;;;;;;5.50;2.45;;;;;;;;;;4976383;28;20054;-62
2022/02/14 07:54:01;;;;;;;5.10;2.10;;;;;;;;;;4976297;28;20062;-62
2022/02/14 07:56:28;;;;;;;4.05;2.28;;;;;;;;;;4991266;28;20823;-61
2022/02/14 07:58:58;;;;;;;7.93;1.90;;;;;;;;;;4976392;28;20517;-62
2022/02/14 08:01:25;;;;;;;4.45;2.30;;;;;;;;;;4976418;28;20534;-62
2022/02/14 08:03:51;;;;;;;6.20;2.05;;;;;;;;;;4976804;28;20055;-62
2022/02/14 08:06:29;;;;;;;2.75;1.70;;;;;;;;;;4989937;28;20058;-62
2022/02/14 08:08:56;;;;;;;4.00;1.83;;;;;;;;;;4976531;28;20047;-61
2022/02/14 08:11:23;;;;;;;9.02;2.13;;;;;;;;;;4976553;28;20086;-62
2022/02/14 08:13:49;;;;;;;9.35;2.40;;;;;;;;;;4976094;28;20054;-62
2022/02/14 08:16:16;;;;;;;14.95;3.05;;;;;;;;;;4976013;28;20093;-62
2022/02/14 08:18:43;;;;;;;3.28;2.20;;;;;;;;;;4975971;28;20498;-62
2022/02/14 08:21:09;;;;;;;4.75;1.88;;;;;;;;;;4975999;28;20055;-63
2022/02/14 08:23:36;;;;;;;4.82;1.80;;;;;;;;;;4975772;28;20498;-62
2022/02/14 08:26:02;;;;;;;3.33;2.20;;;;;;;;;;5000663;23;20050;-64
2022/02/14 08:28:29;;;;;;;5.20;2.10;;;;;;;;;;4989871;28;20059;-64
2022/02/14 08:30:56;;;;;;;7.90;2.38;;;;;;;;;;4975587;28;20681;-65
2022/02/14 08:33:22;;;;;;;3.88;2.10;;;;;;;;;;4975281;28;20055;-65
2022/02/14 08:35:49;;;;;;;3.92;1.98;;;;;;;;;;4975666;28;20102;-64
2022/02/14 08:38:15;;;;;;;3.83;2.30;;;;;;;;;;4971214;28;20050;-64
2022/02/14 08:40:42;;;;;;;4.00;1.88;;;;;;;;;;4956196;29;20047;-65
2022/02/14 08:43:09;;;;;;;3.45;1.90;;;;;;;;;;4956001;29;20051;-64
2022/02/14 08:45:55;;;;;;;4.05;1.90;;;;;;;;;;4955816;28;20086;-64
2022/02/14 08:48:22;;;;;;;4.18;2.05;;;;;;;;;;4956482;28;20051;-65
2022/02/14 08:50:49;;;;;;;4.75;2.03;;;;;;;;;;4955963;29;20498;-63
2022/02/14 08:53:18;;;;;;;4.82;2.42;;;;;;;;;;4970387;28;20051;-64
2022/02/14 08:55:44;;;;;;;3.47;2.08;;;;;;;;;;4956024;29;20051;-64
2022/02/14 08:58:11;;;;;;;5.35;1.98;;;;;;;;;;4955549;28;20054;-64
2022/02/14 09:00:38;;;;;;;3.28;1.92;;;;;;;;;;4955657;29;20583;-64
2022/02/14 09:03:05;;;;;;;8.13;2.47;;;;;;;;;;4955538;29;20051;-65
2022/02/14 09:05:32;;;;;;;6.20;2.05;;;;;;;;;;4970369;28;20059;-64
2022/02/14 09:07:59;;;;;;;3.10;2.13;;;;;;;;;;4938621;29;20051;-64
2022/02/14 09:10:25;;;;;;;5.03;1.85;;;;;;;;;;4954292;29;20043;-64
2022/02/14 09:12:52;;;;;;;5.40;2.40;;;;;;;;;;4955443;29;20055;-63
2022/02/14 09:15:19;;;;;;;4.80;1.75;;;;;;;;;;4955478;29;20051;-66
2022/02/14 09:17:45;;;;;;;5.43;1.70;;;;;;;;;;4954181;28;20491;-65
2022/02/14 09:20:12;;;;;;;4.95;2.05;;;;;;;;;;4955300;29;20462;-64
2022/02/14 09:22:39;;;;;;;5.22;2.10;;;;;;;;;;4970196;28;20058;-65
2022/02/14 09:25:08;;;;;;;4.80;1.80;;;;;;;;;;4955587;28;20454;-65
2022/02/14 09:27:34;;;;;;;5.53;2.00;;;;;;;;;;4955133;28;20426;-65
2022/02/14 09:30:02;;;;;;;4.00;2.33;;;;;;;;;;4955488;29;20553;-65
2022/02/14 09:32:29;;;;;;;4.68;2.28;;;;;;;;;;4955047;29;20055;-63
2022/02/14 09:34:55;;;;;;;3.50;2.13;;;;;;;;;;4955181;29;20102;-65
2022/02/14 09:37:22;;;;;;;4.10;1.63;;;;;;;;;;4954892;28;20565;-65
2022/02/14 09:39:49;;;;;;;7.35;2.10;;;;;;;;;;4969718;28;20094;-65
2022/02/14 09:42:16;;;;;;;3.25;1.90;;;;;;;;;;4954758;28;20055;-65
2022/02/14 09:44:44;;;;;;;4.75;2.25;;;;;;;;;;4953680;29;20047;-66
2022/02/14 09:47:10;;;;;;;4.70;2.20;;;;;;;;;;4953699;28;20055;-64
2022/02/14 09:49:39;;;;;;;5.40;1.80;;;;;;;;;;4954663;29;20098;-64
2022/02/14 09:52:06;;;;;;;2.85;1.65;;;;;;;;;;4953479;29;20058;-65
2022/02/14 09:54:34;;;;;;;7.57;2.33;;;;;;;;;;4954796;29;20110;-65
2022/02/14 09:57:01;;;;;;;3.38;1.75;;;;;;;;;;4953823;28;20051;-63
2022/02/14 09:59:28;;;;;;;5.28;2.20;;;;;;;;;;4954685;29;20107;-64
2022/02/14 10:01:54;;;;;;;4.40;1.65;;;;;;;;;;4953349;29;20055;-65
2022/02/14 10:04:22;;;;;;;5.40;1.92;;;;;;;;;;4954411;29;20055;-64
2022/02/14 10:06:50;;;;;;;4.60;2.22;;;;;;;;;;4954550;28;20098;-65
2022/02/14 10:09:19;;;;;;;3.00;1.85;;;;;;;;;;4954390;29;20102;-65
2022/02/14 10:11:56;;;;;;;9.60;2.25;;;;;;;;;;4954612;29;20102;-65
2022/02/14 10:14:23;;;;;;;6.47;1.88;;;;;;;;;;4954244;29;20466;-65
2022/02/14 10:17:03;;;;;;;3.25;2.10;;;;;;;;;;4954259;28;20051;-64
2022/02/14 10:19:31;;;;;;;5.88;2.05;;;;;;;;;;4968934;28;20414;-65
2022/02/14 10:21:58;;;;;;;4.50;2.10;;;;;;;;;;4954096;28;20565;-66
2022/02/14 10:24:25;;;;;;;7.60;2.15;;;;;;;;;;4954202;28;20105;-65
2022/02/14 10:26:54;;;;;;;6.20;2.75;;;;;;;;;;4954082;28;20457;-64
2022/02/14 10:29:27;;;;;;;3.78;2.15;;;;;;;;;;4968488;28;20047;-65
2022/02/14 10:32:20;;;;;;;4.60;2.25;;;;;;;;;;4952867;29;20081;-66
2022/02/14 10:34:49;;;;;;;5.25;2.20;;;;;;;;;;4952835;29;20646;-64
2022/02/14 10:37:40;;;;;;;6.18;2.50;;;;;;;;;;4953779;28;20568;-65
2022/02/14 10:40:08;;;;;;;5.88;2.38;;;;;;;;;;4968210;28;20055;-65
2022/02/14 10:42:36;;;;;;;7.90;2.53;;;;;;;;;;4953607;29;20058;-66
2022/02/14 10:45:11;;;;;;;3.92;2.40;;;;;;;;;;4953755;29;20066;-65
2022/02/14 10:47:40;;;;;;;3.85;1.92;;;;;;;;;;4952558;28;20191;-64
2022/02/14 10:50:12;;;;;;;5.38;2.08;;;;;;;;;;4953866;28;20059;-64
2022/02/14 10:52:44;;;;;;;4.38;1.92;;;;;;;;;;4952364;29;20051;-66
2022/02/14 10:55:15;;;;;;;4.03;2.00;;;;;;;;;;4968137;28;20059;-65
2022/02/14 10:57:43;;;;;;;9.00;2.08;;;;;;;;;;4968234;28;20051;-65
2022/02/14 11:00:24;;;;;;;8.75;1.80;;;;;;;;;;4951078;29;20046;-65
2022/02/14 11:03:01;;;;;;;6.03;1.67;;;;;;;;;;4965616;28;20055;-66
2022/02/14 11:05:29;;;;;;;6.28;2.13;;;;;;;;;;4964470;28;20058;-65
2022/02/14 11:07:56;;;;;;;8.70;2.00;;;;;;;;;;4950084;28;20051;-65
2022/02/14 11:10:24;;;;;;;4.70;2.45;;;;;;;;;;4965256;28;20462;-66
2022/02/14 11:12:57;;;;;;;4.45;2.83;;;;;;;;;;4965772;28;20059;-64
2022/02/14 11:15:29;;;;;;;5.82;1.90;;;;;;;;;;4950591;29;20522;-64
2022/02/14 11:18:08;;;;;;;4.10;2.03;;;;;;;;;;4951604;28;20055;-65
2022/02/14 11:20:37;;;;;;;4.20;1.20;;;;;;;;;;4950353;29;20055;-65
2022/02/14 11:23:05;;;;;;;7.50;1.48;;;;;;;;;;4951699;28;20062;-65
2022/02/14 11:25:36;;;;;;;2.53;1.48;;;;;;;;;;4949981;29;20102;-65
2022/02/14 11:28:11;;;;;;;5.15;2.28;;;;;;;;;;4950465;28;20055;-65
2022/02/14 11:30:37;;;;;;;3.25;1.52;;;;;;;;;;4966212;28;20110;-65
2022/02/14 11:33:14;;;;;;;3.10;1.63;;;;;;;;;;4950420;29;20113;-65
2022/02/14 11:35:56;;;;;;;4.38;1.70;;;;;;;;;;4965878;28;20418;-65
2022/02/14 11:38:44;;;;;;;6.85;1.70;;;;;;;;;;4964052;28;20126;-66
2022/02/14 11:41:52;;;;;;;5.45;1.80;;;;;;;;;;4951554;28;20052;-65
2022/02/14 11:44:20;;;;;;;3.42;1.55;;;;;;;;;;4950968;29;20055;-66
2022/02/14 11:46:53;;;;;;;5.28;1.33;;;;;;;;;;4951637;28;20530;-66
2022/02/14 11:49:33;;;;;;;3.35;1.23;;;;;;;;;;4951486;29;20055;-68
2022/02/14 11:52:26;;;;;;;5.57;1.35;;;;;;;;;;4947979;28;20043;-66
2022/02/14 11:54:53;;;;;;;8.60;1.50;;;;;;;;;;4948493;29;20525;-68
2022/02/14 11:57:31;;;;;;;6.97;1.27;;;;;;;;;;4963437;28;20093;-68
2022/02/14 12:00:10;;;;;;;6.40;1.23;;;;;;;;;;4949736;28;20048;-67
2022/02/14 12:02:37;;;;;;;3.75;1.77;;;;;;;;;;4948879;29;20421;-68
2022/02/14 12:05:05;;;;;;;6.10;1.90;;;;;;;;;;4938746;29;20044;-67
2022/02/14 12:07:36;;;;;;;5.03;1.17;;;;;;;;;;4949771;28;20059;-67
2022/02/14 12:10:17;;;;;;;7.15;1.45;;;;;;;;;;4963532;28;20566;-67
2022/02/14 12:12:45;;;;;;;2.40;1.10;;;;;;;;;;4947009;29;20055;-68
2022/02/14 12:20:34;;;;;;;3.80;1.30;;;;;;;;;;4949134;29;20055;-68
2022/02/14 12:21:13;;;;;;;1.98;1.10;;;;;;;;;;4960502;28;20047;-67
2022/02/14 12:24:12;;;;;;;2.83;1.30;;;;;;;;;;4965161;28;20450;-67
2022/02/14 12:26:39;;;;;;;1.52;1.17;;;;;;;;;;4953219;28;20413;-67
2022/02/14 12:29:53;;;;;;;3.78;1.23;;;;;;;;;;4952589;28;20091;-67
2022/02/14 12:32:01;;;;;;;3.30;1.25;;;;;;;;;;4944575;29;20136;-69
2022/02/14 12:34:30;;;;;;;4.78;1.35;;;;;;;;;;4967165;28;20051;-67
2022/02/14 12:37:01;;;;;;;3.80;1.20;;;;;;;;;;4935360;29;20046;-67
2022/02/14 12:39:36;;;;;;;4.90;1.08;;;;;;;;;;4959133;28;20055;-67
2022/02/14 12:42:24;;;;;;;4.68;1.20;;;;;;;;;;4951543;29;20047;-68
2022/02/14 12:44:53;;;;;;;3.55;1.20;;;;;;;;;;4957591;28;20368;-66
2022/02/14 12:47:23;;;;;;;2.33;1.25;;;;;;;;;;4952634;28;20128;-69
2022/02/14 12:50:00;;;;;;;2.45;1.20;;;;;;;;;;4960078;28;20050;-68
2022/02/14 12:52:28;;;;;;;3.72;1.20;;;;;;;;;;4939779;29;20051;-69
2022/02/14 12:54:57;;;;;;;4.80;1.30;;;;;;;;;;4960751;28;20173;-68
2022/02/14 12:57:36;;;;;;;5.30;1.40;;;;;;;;;;4967471;28;20062;-68
2022/02/14 13:00:25;;;;;;;2.60;1.30;;;;;;;;;;4964602;28;20059;-68
2022/02/14 13:03:05;;;;;;;3.72;1.73;;;;;;;;;;4947499;28;20051;-68
2022/02/14 13:05:33;;;;;;;3.50;1.88;;;;;;;;;;4954017;29;20047;-68
2022/02/14 13:08:27;;;;;;;6.00;1.77;;;;;;;;;;4952312;28;20138;-67
2022/02/14 13:10:57;;;;;;;2.85;1.48;;;;;;;;;;4951628;29;20122;-67
2022/02/14 13:13:30;;;;;;;5.97;2.60;;;;;;;;;;4952615;29;20082;-67
2022/02/14 13:16:05;;;;;;;2.90;1.27;;;;;;;;;;4960011;28;20466;-68
2022/02/14 13:18:47;;;;;;;3.33;1.17;;;;;;;;;;4968161;28;20138;-68
2022/02/14 13:21:15;;;;;;;3.03;1.50;;;;;;;;;;4962463;28;20047;-68
2022/02/14 13:23:42;;;;;;;2.00;1.35;;;;;;;;;;4953363;29;20078;-68
2022/02/14 13:26:39;;;;;;;4.18;1.45;;;;;;;;;;4966265;28;20051;-68
2022/02/14 13:29:06;;;;;;;3.42;1.25;;;;;;;;;;4945533;28;20050;-68
2022/02/14 13:31:34;;;;;;;2.00;1.27;;;;;;;;;;4951885;28;20051;-68
2022/02/14 13:34:04;;;;;;;3.20;2.20;;;;;;;;;;4953561;28;20047;-68
2022/02/14 13:36:31;;;;;;;4.60;2.20;;;;;;;;;;4952272;28;20059;-68
2022/02/14 13:38:58;;;;;;;3.20;1.20;;;;;;;;;;4953447;28;20055;-68
2022/02/14 13:41:27;;;;;;;4.38;1.30;;;;;;;;;;4953248;28;20055;-68
2022/02/14 13:43:54;;;;;;;3.22;1.25;;;;;;;;;;4967614;28;20126;-68
2022/02/14 13:46:30;;;;;;;3.63;1.95;;;;;;;;;;4951924;28;20043;-68
2022/02/14 13:48:57;;;;;;;3.78;2.10;;;;;;;;;;4945419;29;20051;-68
2022/02/14 13:51:30;;;;;;;2.88;1.88;;;;;;;;;;4953175;29;20043;-68
2022/02/14 13:54:10;;;;;;;4.68;2.00;;;;;;;;;;4950960;29;20051;-67
2022/02/14 13:56:47;;;;;;;3.47;1.95;;;;;;;;;;4959297;28;20071;-66
2022/02/14 13:59:19;;;;;;;4.50;2.50;;;;;;;;;;4957949;28;20062;-67
2022/02/14 14:01:46;;;;;;;3.90;1.85;;;;;;;;;;4947221;29;20311;-71
2022/02/14 14:04:24;;;;;;;2.30;1.13;;;;;;;;;;4949477;29;20391;-67
2022/02/14 14:07:04;;;;;;;3.03;1.52;;;;;;;;;;4951331;28;20462;-71
2022/02/14 14:09:57;;;;;;;4.07;1.88;;;;;;;;;;4942638;29;20138;-70
2022/02/14 14:12:28;;;;;;;3.67;1.83;;;;;;;;;;4951282;29;20051;-69
2022/02/14 14:14:57;;;;;;;2.80;1.38;;;;;;;;;;4960641;28;20085;-70
2022/02/14 14:17:25;;;;;;;3.35;1.23;;;;;;;;;;4966720;28;20492;-71
2022/02/14 14:19:55;;;;;;;1.60;1.08;;;;;;;;;;4959674;28;20054;-70
2022/02/14 14:22:23;;;;;;;2.33;1.25;;;;;;;;;;4966771;28;20047;-68
2022/02/14 14:24:53;;;;;;;1.83;1.27;;;;;;;;;;4959978;28;20058;-69
2022/02/14 14:27:21;;;;;;;3.70;1.58;;;;;;;;;;4976183;23;20053;-69
2022/02/14 14:29:48;;;;;;;2.60;1.30;;;;;;;;;;4961913;28;20470;-69
2022/02/14 14:32:15;;;;;;;3.13;1.30;;;;;;;;;;4961476;28;20047;-70
2022/02/14 14:34:42;;;;;;;2.58;0.88;;;;;;;;;;4962270;28;20056;-70
2022/02/14 14:37:09;;;;;;;3.40;1.13;;;;;;;;;;4961086;28;20046;-72
2022/02/14 14:39:37;;;;;;;6.10;1.27;;;;;;;;;;4962707;28;20131;-70
2022/02/14 14:42:05;;;;;;;2.03;1.20;;;;;;;;;;4961015;28;20054;-71
2022/02/14 14:44:32;;;;;;;1.33;0.80;;;;;;;;;;4957486;28;20445;-70
2022/02/14 14:47:02;;;;;;;1.15;0.98;;;;;;;;;;4960399;28;20047;-72
2022/02/14 14:49:32;;;;;;;2.40;1.05;;;;;;;;;;4959819;28;20062;-73
2022/02/14 14:52:00;;;;;;;2.40;0.90;;;;;;;;;;4961009;28;20079;-70
2022/02/14 14:54:32;;;;;;;2.08;1.48;;;;;;;;;;4963346;28;20143;-71
2022/02/14 14:57:01;;;;;;;3.10;1.20;;;;;;;;;;4965229;28;20129;-68